createdAt,value
2023-01-21T00:00:49.401Z,4.900000095
2023-01-21T00:01:50.759Z,5.199999809
2023-01-21T00:02:51.248Z,4.900000095
2023-01-21T00:03:51.700Z,5.199999809
2023-01-21T00:04:52.241Z,5.400000095
2023-01-21T00:05:52.687Z,4.5
2023-01-21T00:06:53.082Z,4.900000095
2023-01-21T00:07:53.472Z,5
2023-01-21T00:08:53.852Z,4.900000095
2023-01-21T00:09:54.322Z,5.099999905
2023-01-21T00:10:54.758Z,5.199999809
2023-01-21T00:11:55.925Z,4.900000095
2023-01-21T00:12:56.337Z,4.800000191
2023-01-21T00:13:56.723Z,5
2023-01-21T00:14:57.266Z,5.599999905
2023-01-21T00:15:57.787Z,6.099999905
2023-01-21T00:16:58.279Z,4.900000095
2023-01-21T00:17:58.755Z,5.300000191
2023-01-21T00:18:59.136Z,4.699999809
2023-01-21T00:19:59.673Z,4.900000095
2023-01-21T00:21:00.148Z,5
2023-01-21T00:22:01.469Z,5.5
2023-01-21T00:23:02.392Z,4.400000095
2023-01-21T00:24:34.039Z,4.699999809
2023-01-21T00:25:34.432Z,4.900000095
2023-01-21T00:26:34.971Z,4.900000095
2023-01-21T00:27:36.073Z,4.5
2023-01-21T00:28:36.496Z,4.699999809
2023-01-21T00:29:37.980Z,4.800000191
2023-01-21T00:30:38.397Z,5.300000191
2023-01-21T00:31:39.629Z,5
2023-01-21T00:32:39.961Z,5
2023-01-21T00:33:40.627Z,4.5
2023-01-21T00:34:41.235Z,4.900000095
2023-01-21T00:35:41.630Z,4.900000095
2023-01-21T00:36:42.179Z,4.5
2023-01-21T00:37:42.632Z,5.5
2023-01-21T00:38:43.150Z,4.699999809
2023-01-21T00:39:43.769Z,5.199999809
2023-01-21T00:40:44.184Z,5.300000191
2023-01-21T00:41:45.440Z,4.400000095
2023-01-21T00:42:45.955Z,4.099999905
2023-01-21T00:43:46.381Z,4.300000191
2023-01-21T00:44:46.960Z,4.900000095
2023-01-21T00:45:47.363Z,4.699999809
2023-01-21T00:46:47.769Z,4.900000095
2023-01-21T00:47:48.277Z,4.199999809
2023-01-21T00:48:48.680Z,4.099999905
2023-01-21T00:49:49.228Z,4.599999905
2023-01-21T00:50:49.716Z,4.300000191
2023-01-21T00:51:50.835Z,3.599999905
2023-01-21T00:52:51.252Z,3.900000095
2023-01-21T00:53:51.704Z,4.5
2023-01-21T00:54:52.110Z,4.400000095
2023-01-21T00:55:52.720Z,3.900000095
2023-01-21T00:56:53.117Z,4.099999905
2023-01-21T00:57:53.599Z,4.400000095
2023-01-21T00:58:54.198Z,4.300000191
2023-01-21T00:59:55.357Z,4.5
2023-01-21T01:00:56.001Z,4.699999809
2023-01-21T01:01:57.286Z,4.300000191
2023-01-21T01:02:57.899Z,3.799999952
2023-01-21T01:03:58.328Z,4.300000191
2023-01-21T01:04:58.981Z,4.099999905
2023-01-21T01:05:59.476Z,4.199999809
2023-01-21T01:06:59.963Z,4.400000095
2023-01-21T01:08:00.522Z,4.5
2023-01-21T01:09:00.883Z,4.199999809
2023-01-21T01:10:01.962Z,4.099999905
2023-01-21T01:11:33.611Z,4.300000191
2023-01-21T01:12:34.069Z,4.199999809
2023-01-21T01:13:34.489Z,4
2023-01-21T01:14:34.874Z,3.700000048
2023-01-21T01:15:35.494Z,3.799999952
2023-01-21T01:16:35.898Z,3.700000048
2023-01-21T01:17:36.425Z,3.799999952
2023-01-21T01:18:36.889Z,4.400000095
2023-01-21T01:19:37.280Z,3.799999952
2023-01-21T01:20:37.860Z,4.099999905
2023-01-21T01:21:39.079Z,4.800000191
2023-01-21T01:22:39.535Z,4
2023-01-21T01:23:40.097Z,3.900000095
2023-01-21T01:24:40.713Z,3.799999952
2023-01-21T01:25:41.272Z,3.900000095
2023-01-21T01:26:42.371Z,4.699999809
2023-01-21T01:27:42.217Z,3.900000095
2023-01-21T01:28:42.805Z,4.099999905
2023-01-21T01:29:44.055Z,4.099999905
2023-01-21T01:30:44.640Z,3.700000048
2023-01-21T01:31:45.736Z,4
2023-01-21T01:32:46.051Z,3.799999952
2023-01-21T01:33:46.499Z,3.5
2023-01-21T01:34:46.889Z,3.599999905
2023-01-21T01:35:47.436Z,4.5
2023-01-21T01:36:47.885Z,4.099999905
2023-01-21T01:37:48.457Z,3.799999952
2023-01-21T01:38:48.894Z,4.099999905
2023-01-21T01:39:49.275Z,3.599999905
2023-01-21T01:40:49.911Z,3.599999905
2023-01-21T01:41:51.075Z,4.199999809
2023-01-21T01:42:51.687Z,4.400000095
2023-01-21T01:43:52.109Z,3.700000048
2023-01-21T01:44:52.512Z,3.599999905
2023-01-21T01:45:53.013Z,4.099999905
2023-01-21T01:46:53.387Z,3.700000048
2023-01-21T01:47:53.853Z,4.099999905
2023-01-21T01:48:54.273Z,3.299999952
2023-01-21T01:49:54.669Z,3.599999905
2023-01-21T01:50:55.152Z,4.099999905
2023-01-21T01:51:56.076Z,4.300000191
2023-01-21T01:52:56.617Z,4.199999809
2023-01-21T01:53:57.074Z,3.799999952
2023-01-21T01:54:57.501Z,3.5
2023-01-21T01:55:58.093Z,3.700000048
2023-01-21T01:56:58.478Z,3.400000095
2023-01-21T01:57:59.147Z,3.700000048
2023-01-21T01:58:59.520Z,4.300000191
2023-01-21T01:59:59.940Z,4.199999809
2023-01-21T02:01:00.385Z,3.799999952
2023-01-21T02:02:02.123Z,3.900000095
2023-01-21T02:03:32.788Z,3.900000095
2023-01-21T02:04:33.339Z,4.599999905
2023-01-21T02:05:33.862Z,3.900000095
2023-01-21T02:06:34.265Z,3.400000095
2023-01-21T02:07:34.851Z,3.799999952
2023-01-21T02:08:35.282Z,3.400000095
2023-01-21T02:09:35.786Z,3.700000048
2023-01-21T02:10:36.293Z,3.400000095
2023-01-21T02:11:36.707Z,3.799999952
2023-01-21T02:12:37.939Z,3.299999952
2023-01-21T02:13:38.348Z,3.599999905
2023-01-21T02:14:38.855Z,3.099999905
2023-01-21T02:15:39.340Z,3.099999905
2023-01-21T02:16:39.766Z,3.599999905
2023-01-21T02:17:40.505Z,3.900000095
2023-01-21T02:18:40.949Z,3.299999952
2023-01-21T02:19:41.295Z,3.5
2023-01-21T02:20:41.948Z,3.400000095
2023-01-21T02:21:42.351Z,3.900000095
2023-01-21T02:22:43.961Z,4.099999905
2023-01-21T02:23:44.371Z,3.400000095
2023-01-21T02:24:44.761Z,3.099999905
2023-01-21T02:25:45.219Z,3.299999952
2023-01-21T02:26:45.689Z,3.700000048
2023-01-21T02:27:46.087Z,3.299999952
2023-01-21T02:28:46.516Z,3.5
2023-01-21T02:29:47.558Z,3.599999905
2023-01-21T02:30:48.196Z,3.5
2023-01-21T02:31:48.743Z,3.700000048
2023-01-21T02:32:49.780Z,3.599999905
2023-01-21T02:33:50.264Z,3.900000095
2023-01-21T02:34:50.654Z,3.5
2023-01-21T02:35:51.166Z,3.599999905
2023-01-21T02:36:51.673Z,3.299999952
2023-01-21T02:37:52.306Z,2.700000048
2023-01-21T02:38:52.786Z,3.299999952
2023-01-21T02:39:53.181Z,3.299999952
2023-01-21T02:40:53.815Z,3.599999905
2023-01-21T02:41:55.087Z,3.200000048
2023-01-21T02:42:55.656Z,3.700000048
2023-01-21T02:43:56.042Z,2.799999952
2023-01-21T02:44:56.553Z,3.099999905
2023-01-21T02:45:57.024Z,3.799999952
2023-01-21T02:46:57.492Z,3
2023-01-21T02:47:57.970Z,3.099999905
2023-01-21T02:48:58.439Z,3.299999952
2023-01-21T02:49:58.979Z,3
2023-01-21T02:50:59.430Z,3.299999952
2023-01-21T02:52:00.584Z,3.299999952
2023-01-21T02:53:31.309Z,2.900000095
2023-01-21T02:54:32.546Z,2.799999952
2023-01-21T02:55:33.105Z,3.099999905
2023-01-21T02:56:33.514Z,2.900000095
2023-01-21T02:57:33.979Z,2.700000048
2023-01-21T02:58:34.361Z,2.599999905
2023-01-21T02:59:34.753Z,2.700000048
2023-01-21T03:00:35.247Z,3.200000048
2023-01-21T03:01:35.719Z,3.200000048
2023-01-21T03:02:36.799Z,3.299999952
2023-01-21T03:03:37.454Z,3.299999952
2023-01-21T03:04:37.682Z,2.400000095
2023-01-21T03:05:38.256Z,3.200000048
2023-01-21T03:06:38.735Z,3.200000048
2023-01-21T03:07:39.179Z,3.299999952
2023-01-21T03:08:39.799Z,3
2023-01-21T03:09:40.205Z,3.299999952
2023-01-21T03:10:40.936Z,4.300000191
2023-01-21T03:11:41.381Z,3
2023-01-21T03:12:42.776Z,2.799999952
2023-01-21T03:13:43.280Z,3.299999952
2023-01-21T03:14:43.653Z,3
2023-01-21T03:15:44.074Z,3.299999952
2023-01-21T03:16:44.496Z,3
2023-01-21T03:17:44.922Z,3.099999905
2023-01-21T03:18:45.492Z,2.900000095
2023-01-21T03:19:45.932Z,2.799999952
2023-01-21T03:20:46.448Z,2.799999952
2023-01-21T03:21:46.888Z,3
2023-01-21T03:22:48.284Z,3.299999952
2023-01-21T03:23:48.782Z,2.799999952
2023-01-21T03:24:49.191Z,3.299999952
2023-01-21T03:25:49.667Z,3.099999905
2023-01-21T03:26:50.138Z,2.799999952
2023-01-21T03:27:50.632Z,2.700000048
2023-01-21T03:28:51.182Z,2.900000095
2023-01-21T03:29:51.597Z,3.099999905
2023-01-21T03:30:52.848Z,2.799999952
2023-01-21T03:31:53.341Z,2.599999905
2023-01-21T03:32:54.248Z,2.700000048
2023-01-21T03:33:54.898Z,2.5
2023-01-21T03:34:55.300Z,2.700000048
2023-01-21T03:35:55.704Z,3.200000048
2023-01-21T03:36:56.232Z,3.299999952
2023-01-21T03:37:56.606Z,3.099999905
2023-01-21T03:38:57.076Z,3
2023-01-21T03:39:57.481Z,2.799999952
2023-01-21T03:40:57.871Z,3.099999905
2023-01-21T03:41:58.458Z,3.099999905
2023-01-21T03:43:30.369Z,2.799999952
2023-01-21T03:44:30.987Z,2.799999952
2023-01-21T03:45:31.440Z,2.900000095
2023-01-21T03:46:31.938Z,2.599999905
2023-01-21T03:47:32.350Z,2.400000095
2023-01-21T03:48:32.745Z,2.700000048
2023-01-21T03:49:33.199Z,3.200000048
2023-01-21T03:50:33.646Z,2.799999952
2023-01-21T03:51:34.229Z,2.5
2023-01-21T03:52:35.553Z,2.700000048
2023-01-21T03:53:35.983Z,3.200000048
2023-01-21T03:54:36.557Z,2.700000048
2023-01-21T03:55:36.999Z,2.599999905
2023-01-21T03:56:37.571Z,2.599999905
2023-01-21T03:57:38.038Z,2.900000095
2023-01-21T03:58:38.474Z,3.599999905
2023-01-21T03:59:39.090Z,2.599999905
2023-01-21T04:00:40.147Z,2.599999905
2023-01-21T04:01:40.375Z,2.400000095
2023-01-21T04:02:41.542Z,2.400000095
2023-01-21T04:03:41.945Z,2.400000095
2023-01-21T04:04:42.457Z,2.700000048
2023-01-21T04:05:42.902Z,2.599999905
2023-01-21T04:06:43.311Z,2.5
2023-01-21T04:07:43.875Z,2.599999905
2023-01-21T04:08:44.367Z,2.599999905
2023-01-21T04:09:44.902Z,2.099999905
2023-01-21T04:10:45.517Z,2.200000048
2023-01-21T04:11:45.922Z,2.599999905
2023-01-21T04:12:46.530Z,2.5
2023-01-21T04:13:47.771Z,2.799999952
2023-01-21T04:14:48.320Z,2.900000095
2023-01-21T04:15:48.783Z,2.599999905
2023-01-21T04:16:49.174Z,2.599999905
2023-01-21T04:17:49.921Z,2.799999952
2023-01-21T04:18:50.356Z,2.400000095
2023-01-21T04:19:50.908Z,2.5
2023-01-21T04:20:51.313Z,2.599999905
2023-01-21T04:21:51.713Z,2.799999952
2023-01-21T04:22:53.038Z,2.5
2023-01-21T04:23:53.524Z,2.400000095
2023-01-21T04:24:54.120Z,2.200000048
2023-01-21T04:25:54.544Z,2.5
2023-01-21T04:26:54.944Z,2.5
2023-01-21T04:27:55.395Z,2.700000048
2023-01-21T04:28:55.882Z,2.099999905
2023-01-21T04:29:57.074Z,2.900000095
2023-01-21T04:30:57.533Z,2.599999905
2023-01-21T04:31:58.008Z,2.299999952
2023-01-21T04:32:59.043Z,2
2023-01-21T04:34:29.856Z,2.5
2023-01-21T04:35:30.289Z,2.599999905
2023-01-21T04:36:31.255Z,2.299999952
2023-01-21T04:37:31.876Z,2.5
2023-01-21T04:38:32.284Z,2.200000048
2023-01-21T04:39:32.783Z,2.700000048
2023-01-21T04:40:33.236Z,2.400000095
2023-01-21T04:41:33.680Z,2.400000095
2023-01-21T04:42:34.270Z,3.099999905
2023-01-21T04:43:35.278Z,2.900000095
2023-01-21T04:44:35.708Z,2.700000048
2023-01-21T04:45:36.305Z,2.200000048
2023-01-21T04:46:36.637Z,2.700000048
2023-01-21T04:47:37.206Z,2.299999952
2023-01-21T04:48:37.685Z,2.400000095
2023-01-21T04:49:38.106Z,2.200000048
2023-01-21T04:50:38.607Z,2.099999905
2023-01-21T04:51:40.039Z,2.200000048
2023-01-21T04:52:40.700Z,2.200000048
2023-01-21T04:53:41.899Z,2.099999905
2023-01-21T04:54:42.329Z,2.5
2023-01-21T04:55:42.726Z,2.5
2023-01-21T04:56:43.277Z,2.400000095
2023-01-21T04:57:43.666Z,2.5
2023-01-21T04:58:44.226Z,2.200000048
2023-01-21T04:59:44.739Z,2.5
2023-01-21T05:00:45.096Z,2.400000095
2023-01-21T05:01:45.665Z,2.5
2023-01-21T05:02:47.042Z,2.200000048
2023-01-21T05:03:47.595Z,2.200000048
2023-01-21T05:04:48.058Z,2.099999905
2023-01-21T05:05:48.451Z,2.200000048
2023-01-21T05:06:49.065Z,2.5
2023-01-21T05:07:49.487Z,2.400000095
2023-01-21T05:08:50.004Z,2.099999905
2023-01-21T05:09:50.436Z,2
2023-01-21T05:10:50.785Z,2.5
2023-01-21T05:11:51.264Z,2.5
2023-01-21T05:12:52.558Z,2.099999905
2023-01-21T05:13:53.042Z,1.899999976
2023-01-21T05:14:53.519Z,2.200000048
2023-01-21T05:15:53.953Z,2.400000095
2023-01-21T05:16:54.511Z,1.799999952
2023-01-21T05:17:54.910Z,2
2023-01-21T05:18:55.325Z,3.299999952
2023-01-21T05:19:55.918Z,2.700000048
2023-01-21T05:20:56.324Z,2.099999905
2023-01-21T05:21:56.845Z,2.5
2023-01-21T05:22:58.051Z,2.599999905
2023-01-21T05:23:58.864Z,2.099999905
2023-01-21T05:25:29.696Z,2.099999905
2023-01-21T05:26:30.089Z,2.599999905
2023-01-21T05:27:30.612Z,2.299999952
2023-01-21T05:28:31.148Z,1.700000048
2023-01-21T05:29:31.699Z,2.5
2023-01-21T05:30:32.062Z,1.799999952
2023-01-21T05:31:32.556Z,1.899999976
2023-01-21T05:32:32.831Z,2.599999905
2023-01-21T05:33:34.283Z,1.899999976
2023-01-21T05:34:34.713Z,2.299999952
2023-01-21T05:35:35.163Z,2.400000095
2023-01-21T05:36:35.589Z,2.099999905
2023-01-21T05:37:35.993Z,2.099999905
2023-01-21T05:38:36.466Z,2.400000095
2023-01-21T05:39:36.948Z,2.400000095
2023-01-21T05:40:37.602Z,1.899999976
2023-01-21T05:41:37.981Z,2.700000048
2023-01-21T05:42:38.504Z,2
2023-01-21T05:43:39.729Z,2.700000048
2023-01-21T05:44:40.237Z,2.200000048
2023-01-21T05:45:41.001Z,2.700000048
2023-01-21T05:46:41.406Z,2.099999905
2023-01-21T05:47:41.945Z,2.299999952
2023-01-21T05:48:42.349Z,2.400000095
2023-01-21T05:49:42.767Z,2.400000095
2023-01-21T05:50:43.297Z,2.400000095
2023-01-21T05:51:43.659Z,2.200000048
2023-01-21T05:52:44.171Z,2.099999905
2023-01-21T05:53:45.223Z,2.299999952
2023-01-21T05:55:00.650Z,2.200000048
2023-01-21T05:55:46.141Z,2.299999952
2023-01-21T05:56:46.535Z,2.5
2023-01-21T05:57:47.021Z,2.200000048
2023-01-21T05:58:47.394Z,2.099999905
2023-01-21T05:59:47.806Z,2.200000048
2023-01-21T06:00:48.266Z,2.200000048
2023-01-21T06:01:49.288Z,2.099999905
2023-01-21T06:02:49.904Z,2.400000095
2023-01-21T06:03:51.279Z,2
2023-01-21T06:04:51.797Z,2.5
2023-01-21T06:05:52.207Z,2.099999905
2023-01-21T06:06:52.699Z,2.099999905
2023-01-21T06:07:53.166Z,2.400000095
2023-01-21T06:08:53.560Z,1.899999976
2023-01-21T06:09:54.148Z,2
2023-01-21T06:10:54.556Z,2.400000095
2023-01-21T06:11:54.916Z,2.299999952
2023-01-21T06:12:55.315Z,2
2023-01-21T06:13:55.734Z,2.299999952
2023-01-21T06:14:56.847Z,2.299999952
2023-01-21T06:15:57.455Z,1.899999976
2023-01-21T06:16:57.726Z,2.5
2023-01-21T06:18:28.730Z,1.799999952
2023-01-21T06:19:29.139Z,2.099999905
2023-01-21T06:20:29.663Z,2.5
2023-01-21T06:21:30.135Z,2.900000095
2023-01-21T06:22:30.495Z,2.200000048
2023-01-21T06:23:32.013Z,2.299999952
2023-01-21T06:24:32.391Z,2.400000095
2023-01-21T06:25:32.939Z,2.299999952
2023-01-21T06:26:33.398Z,2.599999905
2023-01-21T06:27:33.727Z,2.599999905
2023-01-21T06:28:35.024Z,2.900000095
2023-01-21T06:29:35.396Z,2.599999905
2023-01-21T06:30:35.964Z,3
2023-01-21T06:31:37.156Z,2.299999952
2023-01-21T06:32:37.585Z,2.700000048
2023-01-21T06:33:38.527Z,2.5
2023-01-21T06:34:38.931Z,3.099999905
2023-01-21T06:35:39.335Z,2.400000095
2023-01-21T06:36:39.740Z,2.700000048
2023-01-21T06:37:40.162Z,2.599999905
2023-01-21T06:38:40.687Z,2.200000048
2023-01-21T06:39:41.069Z,2.5
2023-01-21T06:40:41.634Z,2.900000095
2023-01-21T06:41:42.708Z,2.299999952
2023-01-21T06:42:43.227Z,2.599999905
2023-01-21T06:43:44.521Z,2.5
2023-01-21T06:44:44.981Z,2.599999905
2023-01-21T06:45:45.447Z,2.700000048
2023-01-21T06:46:55.861Z,2.799999952
2023-01-21T06:47:46.375Z,2.400000095
2023-01-21T06:48:46.795Z,2.5
2023-01-21T06:49:47.180Z,2.299999952
2023-01-21T06:50:47.794Z,2.5
2023-01-21T06:51:48.186Z,2.799999952
2023-01-21T06:52:48.729Z,2.400000095
2023-01-21T06:53:49.707Z,2.599999905
2023-01-21T06:54:51.100Z,2.400000095
2023-01-21T06:55:51.544Z,2.700000048
2023-01-21T06:56:51.966Z,2.799999952
2023-01-21T06:57:52.543Z,2.599999905
2023-01-21T06:58:52.925Z,2.099999905
2023-01-21T06:59:53.449Z,3.299999952
2023-01-21T07:00:53.974Z,2.799999952
2023-01-21T07:01:55.615Z,3.099999905
2023-01-21T07:02:55.955Z,2.599999905
2023-01-21T07:03:57.130Z,2.299999952
2023-01-21T07:05:28.014Z,2.5
2023-01-21T07:06:28.548Z,2.799999952
2023-01-21T07:07:29.109Z,2.900000095
2023-01-21T07:08:29.462Z,2.400000095
2023-01-21T07:09:29.964Z,2.599999905
2023-01-21T07:10:30.359Z,2.200000048
2023-01-21T07:11:30.755Z,2.400000095
2023-01-21T07:12:31.323Z,2.400000095
2023-01-21T07:13:32.515Z,2.799999952
2023-01-21T07:14:33.004Z,2.900000095
2023-01-21T07:15:33.380Z,2.700000048
2023-01-21T07:16:33.771Z,3.400000095
2023-01-21T07:17:34.281Z,2.299999952
2023-01-21T07:18:35.514Z,2.599999905
2023-01-21T07:19:36.004Z,2.700000048
2023-01-21T07:20:36.374Z,2.599999905
2023-01-21T07:21:36.780Z,2.400000095
2023-01-21T07:22:37.243Z,2.900000095
2023-01-21T07:23:38.505Z,2.599999905
2023-01-21T07:24:38.974Z,3.299999952
2023-01-21T07:25:39.358Z,2.799999952
2023-01-21T07:26:39.773Z,2.5
2023-01-21T07:27:40.196Z,2.400000095
2023-01-21T07:28:40.713Z,2.299999952
2023-01-21T07:29:41.168Z,2.400000095
2023-01-21T07:30:42.591Z,2.200000048
2023-01-21T07:31:42.967Z,2.299999952
2023-01-21T07:32:43.377Z,2.400000095
2023-01-21T07:33:43.741Z,2.799999952
2023-01-21T07:34:44.175Z,2.299999952
2023-01-21T07:35:44.538Z,2.5
2023-01-21T07:36:44.936Z,2.5
2023-01-21T07:37:45.395Z,2.400000095
2023-01-21T07:38:45.792Z,3
2023-01-21T07:39:46.310Z,2.599999905
2023-01-21T07:40:46.697Z,2.5
2023-01-21T07:41:47.190Z,2.700000048
2023-01-21T07:42:47.681Z,2.299999952
2023-01-21T07:43:49.012Z,2.599999905
2023-01-21T07:44:49.622Z,2.900000095
2023-01-21T07:45:50.000Z,4.199999809
2023-01-21T07:46:50.611Z,2.700000048
2023-01-21T07:47:51.021Z,2.5
2023-01-21T07:48:51.380Z,2.700000048
2023-01-21T07:49:51.975Z,2.700000048
2023-01-21T07:50:52.376Z,3.5
2023-01-21T07:51:52.882Z,2.799999952
2023-01-21T07:52:53.298Z,2.599999905
2023-01-21T07:53:54.386Z,3.200000048
2023-01-21T07:54:54.810Z,2.5
2023-01-21T07:55:56.241Z,2.700000048
2023-01-21T07:56:57.164Z,4
2023-01-21T07:58:27.765Z,3.400000095
2023-01-21T07:59:28.202Z,3.400000095
2023-01-21T08:00:28.629Z,3.700000048
2023-01-21T08:01:30.103Z,4.099999905
2023-01-21T08:02:30.559Z,3.900000095
2023-01-21T08:03:30.870Z,4
2023-01-21T08:04:32.230Z,3.799999952
2023-01-21T08:05:32.644Z,3.299999952
2023-01-21T08:06:33.167Z,3.5
2023-01-21T08:07:33.619Z,3.400000095
2023-01-21T08:08:34.073Z,3.299999952
2023-01-21T08:09:34.668Z,2.900000095
2023-01-21T08:10:35.059Z,3.200000048
2023-01-21T08:11:35.464Z,3.599999905
2023-01-21T08:12:36.060Z,2.900000095
2023-01-21T08:13:36.481Z,2.700000048
2023-01-21T08:14:37.705Z,2.799999952
2023-01-21T08:15:38.179Z,2.799999952
2023-01-21T08:16:38.641Z,2.599999905
2023-01-21T08:17:39.029Z,2.5
2023-01-21T08:18:39.469Z,3
2023-01-21T08:19:39.836Z,3.299999952
2023-01-21T08:20:40.212Z,2.900000095
2023-01-21T08:21:40.755Z,2.799999952
2023-01-21T08:22:41.226Z,3.299999952
2023-01-21T08:23:42.495Z,2.900000095
2023-01-21T08:24:42.887Z,3.400000095
2023-01-21T08:25:44.245Z,2.599999905
2023-01-21T08:26:44.655Z,2.799999952
2023-01-21T08:27:45.142Z,2.900000095
2023-01-21T08:28:45.529Z,2.900000095
2023-01-21T08:29:46.012Z,2.900000095
2023-01-21T08:30:46.474Z,2.799999952
2023-01-21T08:31:47.577Z,3.400000095
2023-01-21T08:32:48.092Z,4.300000191
2023-01-21T08:33:48.474Z,3.299999952
2023-01-21T08:34:48.878Z,2.400000095
2023-01-21T08:35:49.293Z,2.299999952
2023-01-21T08:36:49.704Z,2.5
2023-01-21T08:37:50.116Z,2.700000048
2023-01-21T08:38:50.511Z,2.900000095
2023-01-21T08:39:50.906Z,3
2023-01-21T08:40:51.335Z,2.599999905
2023-01-21T08:41:51.772Z,2.5
2023-01-21T08:42:52.325Z,3.599999905
2023-01-21T08:43:52.728Z,3.299999952
2023-01-21T08:44:53.703Z,3.200000048
2023-01-21T08:45:54.185Z,3.599999905
2023-01-21T08:46:54.604Z,3.900000095
2023-01-21T08:47:55.176Z,4.199999809
2023-01-21T08:48:55.629Z,3.400000095
2023-01-21T08:49:56.041Z,3.900000095
2023-01-21T08:51:27.100Z,3.799999952
2023-01-21T08:52:27.494Z,3.900000095
2023-01-21T08:53:27.869Z,3.200000048
2023-01-21T08:54:29.187Z,3.700000048
2023-01-21T08:55:30.493Z,3.700000048
2023-01-21T08:56:31.078Z,4.400000095
2023-01-21T08:57:31.503Z,3.799999952
2023-01-21T08:58:31.847Z,3.900000095
2023-01-21T08:59:32.427Z,3.799999952
2023-01-21T09:00:32.807Z,5.099999905
2023-01-21T09:01:33.332Z,3.900000095
2023-01-21T09:02:33.874Z,3.900000095
2023-01-21T09:03:34.311Z,3.900000095
2023-01-21T09:04:35.483Z,3.599999905
2023-01-21T09:05:35.922Z,4.699999809
2023-01-21T09:06:36.499Z,4.5
2023-01-21T09:07:37.003Z,3.400000095
2023-01-21T09:08:37.411Z,3.900000095
2023-01-21T09:09:38.005Z,3.700000048
2023-01-21T09:10:38.391Z,3.299999952
2023-01-21T09:11:38.861Z,3.599999905
2023-01-21T09:12:39.379Z,3.900000095
2023-01-21T09:13:39.830Z,4.300000191
2023-01-21T09:14:41.499Z,16.5
2023-01-21T09:15:41.893Z,18.70000076
2023-01-21T09:16:42.468Z,8.899999619
2023-01-21T09:17:42.959Z,4.199999809
2023-01-21T09:18:43.372Z,5
2023-01-21T09:19:43.968Z,3.700000048
2023-01-21T09:20:44.362Z,3.599999905
2023-01-21T09:21:44.880Z,3.700000048
2023-01-21T09:22:45.359Z,3.5
2023-01-21T09:23:46.510Z,3.700000048
2023-01-21T09:24:47.660Z,3.200000048
2023-01-21T09:25:48.132Z,3.400000095
2023-01-21T09:26:48.564Z,3.700000048
2023-01-21T09:27:49.104Z,3.5
2023-01-21T09:28:49.507Z,4
2023-01-21T09:29:50.010Z,3.799999952
2023-01-21T09:30:50.429Z,4.099999905
2023-01-21T09:31:50.851Z,3.5
2023-01-21T09:32:52.271Z,3.799999952
2023-01-21T09:33:52.634Z,3.599999905
2023-01-21T09:34:53.878Z,4.099999905
2023-01-21T09:35:54.313Z,3.400000095
2023-01-21T09:36:54.719Z,3.700000048
2023-01-21T09:37:55.366Z,4.300000191
2023-01-21T09:39:26.309Z,3.900000095
2023-01-21T09:40:26.961Z,4.199999809
2023-01-21T09:41:27.368Z,3.900000095
2023-01-21T09:42:27.955Z,3.400000095
2023-01-21T09:43:28.417Z,3.599999905
2023-01-21T09:44:29.502Z,3.599999905
2023-01-21T09:45:30.148Z,3.5
2023-01-21T09:46:30.557Z,4.199999809
2023-01-21T09:47:31.044Z,3.700000048
2023-01-21T09:48:31.403Z,3.700000048
2023-01-21T09:49:31.829Z,4.099999905
2023-01-21T09:50:32.372Z,4.800000191
2023-01-21T09:51:32.832Z,4.5
2023-01-21T09:52:33.259Z,4.900000095
2023-01-21T09:53:33.869Z,4.199999809
2023-01-21T09:54:35.001Z,4.300000191
2023-01-21T09:55:35.559Z,5
2023-01-21T09:56:36.012Z,4.599999905
2023-01-21T09:57:36.583Z,4.5
2023-01-21T09:58:37.015Z,5
2023-01-21T09:59:37.431Z,4.5
2023-01-21T10:00:37.957Z,4.199999809
2023-01-21T10:01:38.365Z,5.400000095
2023-01-21T10:02:39.996Z,4.699999809
2023-01-21T10:03:40.640Z,5.199999809
2023-01-21T10:04:41.135Z,4.699999809
2023-01-21T10:05:41.602Z,4.400000095
2023-01-21T10:06:42.004Z,4.699999809
2023-01-21T10:07:42.508Z,4.5
2023-01-21T10:08:43.084Z,4.099999905
2023-01-21T10:09:43.484Z,4.599999905
2023-01-21T10:10:43.964Z,5.699999809
2023-01-21T10:11:46.138Z,5
2023-01-21T10:12:44.791Z,4.900000095
2023-01-21T10:13:45.256Z,5
2023-01-21T10:14:45.666Z,5.5
2023-01-21T10:15:46.098Z,4.699999809
2023-01-21T10:16:46.601Z,4.699999809
2023-01-21T10:17:46.882Z,5.400000095
2023-01-21T10:18:47.413Z,4.900000095
2023-01-21T10:19:47.918Z,5.199999809
2023-01-21T10:20:48.636Z,5.300000191
2023-01-21T10:21:49.023Z,5.800000191
2023-01-21T10:22:49.425Z,5.099999905
2023-01-21T10:23:49.943Z,6.5
2023-01-21T10:24:50.404Z,4.900000095
2023-01-21T10:25:51.650Z,5.599999905
2023-01-21T10:26:52.122Z,4.599999905
2023-01-21T10:27:52.535Z,6.400000095
2023-01-21T10:28:53.058Z,5.400000095
2023-01-21T10:29:53.505Z,5.199999809
2023-01-21T10:30:54.042Z,5.800000191
2023-01-21T10:31:54.499Z,6.199999809
2023-01-21T10:33:25.910Z,6
2023-01-21T10:34:26.295Z,5.699999809
2023-01-21T10:35:27.727Z,5.699999809
2023-01-21T10:36:28.199Z,6.199999809
2023-01-21T10:37:28.621Z,5.800000191
2023-01-21T10:38:29.029Z,6.300000191
2023-01-21T10:39:29.548Z,5.400000095
2023-01-21T10:40:29.915Z,6.599999905
2023-01-21T10:41:30.497Z,6
2023-01-21T10:42:31.075Z,5.900000095
2023-01-21T10:43:31.600Z,7.599999905
2023-01-21T10:44:32.017Z,6.400000095
2023-01-21T10:45:33.173Z,6.400000095
2023-01-21T10:46:33.744Z,5.800000191
2023-01-21T10:47:34.238Z,7
2023-01-21T10:48:35.508Z,6.699999809
2023-01-21T10:49:36.025Z,5.900000095
2023-01-21T10:50:36.423Z,7.099999905
2023-01-21T10:51:36.847Z,7
2023-01-21T10:52:37.329Z,7.199999809
2023-01-21T10:53:38.516Z,6.900000095
2023-01-21T10:54:38.951Z,6.900000095
2023-01-21T10:55:40.168Z,7.300000191
2023-01-21T10:56:40.775Z,7.5
2023-01-21T10:57:41.299Z,7.699999809
2023-01-21T10:58:41.733Z,7.400000095
2023-01-21T10:59:42.164Z,6.800000191
2023-01-21T11:00:42.547Z,8.399999619
2023-01-21T11:01:42.976Z,7.5
2023-01-21T11:02:44.059Z,8.300000191
2023-01-21T11:03:44.439Z,7.800000191
2023-01-21T11:04:45.017Z,7
2023-01-21T11:05:45.412Z,7.400000095
2023-01-21T11:06:45.819Z,7.900000095
2023-01-21T11:07:46.361Z,7.199999809
2023-01-21T11:08:47.542Z,7.400000095
2023-01-21T11:09:47.934Z,8.100000381
2023-01-21T11:10:48.321Z,15.89999962
2023-01-21T11:11:48.694Z,12.69999981
2023-01-21T11:12:49.155Z,30.79999924
2023-01-21T11:13:49.610Z,15.10000038
2023-01-21T11:14:51.070Z,12.10000038
2023-01-21T11:15:52.571Z,22.89999962
2023-01-21T11:16:52.869Z,25
2023-01-21T11:17:53.404Z,11.60000038
2023-01-21T11:18:54.491Z,13.89999962
2023-01-21T11:20:25.161Z,11.39999962
2023-01-21T11:21:25.558Z,20.39999962
2023-01-21T11:22:26.018Z,18.39999962
2023-01-21T11:23:26.570Z,11.5
2023-01-21T11:24:28.007Z,10.80000019
2023-01-21T11:25:28.496Z,9.899999619
2023-01-21T11:26:28.959Z,13.69999981
2023-01-21T11:27:29.332Z,13.80000019